createdAt,value
2023-04-16T00:01:37.423Z,9.57
2023-04-16T00:04:04.271Z,9.58
2023-04-16T00:06:31.768Z,9.67
2023-04-16T00:08:58.382Z,9.62
2023-04-16T00:11:24.929Z,9.57
2023-04-16T00:13:51.462Z,9.58
2023-04-16T00:16:17.990Z,9.68
2023-04-16T00:18:44.517Z,9.67
2023-04-16T00:21:11.163Z,9.67
2023-04-16T00:23:38.007Z,9.58
2023-04-16T00:26:04.675Z,9.60
2023-04-16T00:28:31.147Z,9.53
2023-04-16T00:30:57.735Z,9.58
2023-04-16T00:33:24.288Z,9.52
2023-04-16T00:35:51.195Z,9.48
2023-04-16T00:38:17.853Z,9.46
2023-04-16T00:40:44.365Z,9.45
2023-04-16T00:43:10.859Z,9.47
2023-04-16T00:45:38.380Z,9.49
2023-04-16T00:48:05.883Z,9.50
2023-04-16T00:50:33.498Z,9.64
2023-04-16T00:53:00.841Z,9.69
2023-04-16T00:55:27.517Z,9.65
2023-04-16T00:57:54.103Z,9.62
2023-04-16T01:00:21.283Z,9.66
2023-04-16T01:02:48.150Z,9.54
2023-04-16T01:05:14.776Z,9.56
2023-04-16T01:07:41.314Z,9.65
2023-04-16T01:10:08.086Z,9.65
2023-04-16T01:12:34.727Z,9.72
2023-04-16T01:15:01.519Z,9.65
2023-04-16T01:17:28.158Z,9.62
2023-04-16T01:19:59.066Z,9.65
2023-04-16T01:22:25.580Z,9.71
2023-04-16T01:24:52.149Z,9.56
2023-04-16T01:27:18.698Z,9.65
2023-04-16T01:29:45.184Z,9.61
2023-04-16T01:32:12.166Z,9.60
2023-04-16T01:34:40.659Z,9.60
2023-04-16T01:37:09.816Z,9.58
2023-04-16T01:39:36.609Z,9.64
2023-04-16T01:42:03.136Z,9.67
2023-04-16T01:44:30.937Z,9.68
2023-04-16T01:46:57.693Z,9.64
2023-04-16T01:49:25.592Z,9.61
2023-04-16T01:51:52.968Z,9.59
2023-04-16T01:54:19.549Z,9.53
2023-04-16T01:56:46.093Z,9.52
2023-04-16T01:59:12.776Z,9.52
2023-04-16T02:01:42.459Z,9.55
2023-04-16T02:04:10.036Z,9.54
2023-04-16T02:06:36.667Z,9.57
2023-04-16T02:09:03.429Z,9.54
2023-04-16T02:11:29.962Z,9.57
2023-04-16T02:13:56.591Z,9.59
2023-04-16T02:16:24.040Z,9.57
2023-04-16T02:18:53.464Z,9.63
2023-04-16T02:21:22.351Z,9.65
2023-04-16T02:23:51.681Z,9.62
2023-04-16T02:26:22.467Z,9.61
2023-04-16T02:28:50.980Z,9.65
2023-04-16T02:31:21.624Z,9.65
2023-04-16T02:33:48.199Z,9.69
2023-04-16T02:36:14.911Z,9.74
2023-04-16T02:38:41.479Z,9.76
2023-04-16T02:41:08.775Z,9.80
2023-04-16T02:43:35.459Z,9.76
2023-04-16T02:46:02.227Z,9.73
2023-04-16T02:48:28.833Z,9.67
2023-04-16T02:50:55.664Z,9.70
2023-04-16T02:53:22.306Z,9.68
2023-04-16T02:55:52.786Z,9.78
2023-04-16T02:58:24.080Z,9.67
2023-04-16T03:00:51.511Z,9.72
2023-04-16T03:03:18.175Z,9.67
2023-04-16T03:05:44.785Z,9.67
2023-04-16T03:08:11.645Z,9.64
2023-04-16T03:10:38.185Z,9.62
2023-04-16T03:13:05.095Z,9.63
2023-04-16T03:15:31.708Z,9.52
2023-04-16T03:17:58.360Z,9.53
2023-04-16T03:20:25.376Z,9.56
2023-04-16T03:22:53.205Z,9.54
2023-04-16T03:25:20.017Z,9.52
2023-04-16T03:27:46.589Z,9.47
2023-04-16T03:30:14.826Z,9.52
2023-04-16T03:32:41.604Z,9.55
2023-04-16T03:35:09.188Z,9.54
2023-04-16T03:37:37.059Z,9.52
2023-04-16T03:40:05.813Z,9.59
2023-04-16T03:42:32.524Z,9.51
2023-04-16T03:44:59.490Z,9.48
2023-04-16T03:47:26.576Z,9.51
2023-04-16T03:49:56.869Z,9.64
2023-04-16T03:52:23.720Z,9.54
2023-04-16T03:54:53.076Z,9.54
2023-04-16T03:57:25.043Z,9.50
2023-04-16T03:59:55.195Z,9.50
2023-04-16T04:02:22.538Z,9.56
2023-04-16T04:04:49.477Z,9.50
2023-04-16T04:07:16.362Z,9.44
2023-04-16T04:09:42.965Z,9.46
2023-04-16T04:12:09.979Z,9.46
2023-04-16T04:14:39.921Z,9.44
2023-04-16T04:17:07.967Z,9.46
2023-04-16T04:19:34.679Z,9.52
2023-04-16T04:22:02.501Z,9.49
2023-04-16T04:24:29.077Z,9.48
2023-04-16T04:26:57.479Z,9.44
2023-04-16T04:29:24.225Z,9.48
2023-04-16T04:31:51.210Z,9.38
2023-04-16T04:34:17.828Z,9.42
2023-04-16T04:36:44.800Z,9.43
2023-04-16T04:39:13.359Z,9.47
2023-04-16T04:41:42.770Z,9.49
2023-04-16T04:44:09.264Z,9.51
2023-04-16T04:46:35.991Z,9.49
2023-04-16T04:49:02.558Z,9.52
2023-04-16T04:51:29.180Z,9.49
2023-04-16T04:53:56.858Z,9.51
2023-04-16T04:56:23.494Z,9.51
2023-04-16T04:58:51.006Z,9.49
2023-04-16T05:01:19.460Z,9.51
2023-04-16T05:03:46.244Z,9.56
2023-04-16T05:06:12.821Z,9.58
2023-04-16T05:08:39.336Z,9.60
2023-04-16T05:11:05.976Z,9.63
2023-04-16T05:13:32.530Z,9.60
2023-04-16T05:15:59.699Z,9.57
2023-04-16T05:18:26.701Z,9.51
2023-04-16T05:20:53.353Z,9.57
2023-04-16T05:23:19.816Z,9.57
2023-04-16T05:25:46.306Z,9.58
2023-04-16T05:28:12.827Z,9.56
2023-04-16T05:30:39.440Z,9.46
2023-04-16T05:33:05.992Z,9.39
2023-04-16T05:35:32.488Z,9.38
2023-04-16T05:37:59.013Z,9.34
2023-04-16T05:40:26.185Z,9.34
2023-04-16T05:42:52.807Z,9.35
2023-04-16T05:45:19.342Z,9.36
2023-04-16T05:47:45.824Z,9.40
2023-04-16T05:50:12.383Z,9.40
2023-04-16T05:52:38.929Z,9.49
2023-04-16T05:55:06.200Z,9.46
2023-04-16T05:57:33.341Z,9.48
2023-04-16T05:59:59.865Z,9.31
2023-04-16T06:02:26.554Z,9.30
2023-04-16T06:04:53.219Z,9.35
2023-04-16T06:07:19.677Z,9.33
2023-04-16T06:09:46.281Z,9.36
2023-04-16T06:12:12.791Z,9.36
2023-04-16T06:14:39.264Z,9.36
2023-04-16T06:17:05.899Z,9.37
2023-04-16T06:19:32.398Z,9.36
2023-04-16T06:21:59.120Z,9.35
2023-04-16T06:24:25.654Z,9.37
2023-04-16T06:26:52.226Z,9.35
2023-04-16T06:29:18.760Z,9.34
2023-04-16T06:31:45.339Z,9.36
2023-04-16T06:34:11.914Z,9.37
2023-04-16T06:36:38.544Z,9.35
2023-04-16T06:39:05.074Z,9.38
2023-04-16T06:41:31.601Z,9.30
2023-04-16T06:43:58.088Z,9.32
2023-04-16T06:46:24.605Z,9.38
2023-04-16T06:48:51.211Z,9.38
2023-04-16T06:51:17.756Z,9.40
2023-04-16T06:53:45.409Z,9.52
2023-04-16T06:56:11.919Z,9.51
2023-04-16T06:58:38.526Z,9.50
2023-04-16T07:01:05.653Z,9.53
2023-04-16T07:03:32.461Z,9.52
2023-04-16T07:05:59.042Z,9.63
2023-04-16T07:08:25.657Z,9.55
2023-04-16T07:10:53.727Z,9.53
2023-04-16T07:13:21.065Z,9.57
2023-04-16T07:15:47.954Z,9.52
2023-04-16T07:18:14.686Z,9.49
2023-04-16T07:20:41.237Z,9.48
2023-04-16T07:23:07.781Z,9.51
2023-04-16T07:25:34.272Z,9.55
2023-04-16T07:28:00.760Z,9.74
2023-04-16T07:30:33.937Z,9.58
2023-04-16T07:33:02.687Z,9.53
2023-04-16T07:35:30.250Z,9.57
2023-04-16T07:37:56.908Z,9.58
2023-04-16T07:40:24.871Z,9.55
2023-04-16T07:42:51.754Z,9.59
2023-04-16T07:45:19.191Z,9.56
2023-04-16T07:47:46.126Z,9.54
2023-04-16T07:50:13.181Z,9.57
2023-04-16T07:52:41.322Z,9.75
2023-04-16T07:55:10.848Z,9.54
2023-04-16T07:57:37.477Z,9.57
2023-04-16T08:00:07.453Z,9.54
2023-04-16T08:02:40.104Z,9.58
2023-04-16T08:05:07.326Z,9.66
2023-04-16T08:07:34.790Z,9.63
2023-04-16T08:10:01.629Z,9.77
2023-04-16T08:12:29.495Z,9.84
2023-04-16T08:14:56.231Z,9.68
2023-04-16T08:17:22.888Z,9.61
2023-04-16T08:19:49.465Z,9.77
2023-04-16T08:22:16.649Z,9.99
2023-04-16T08:24:43.142Z,9.96
2023-04-16T08:27:18.659Z,9.96
2023-04-16T08:29:46.756Z,9.99
2023-04-16T08:32:13.236Z,10.01
2023-04-16T08:34:39.820Z,10.01
2023-04-16T08:37:06.364Z,9.84
2023-04-16T08:39:32.967Z,9.94
2023-04-16T08:42:02.311Z,10.00
2023-04-16T08:44:33.819Z,9.99
2023-04-16T08:47:02.148Z,10.05
2023-04-16T08:49:29.335Z,10.01
2023-04-16T08:51:56.956Z,10.02
2023-04-16T08:54:37.749Z,10.06
2023-04-16T08:57:07.514Z,9.99
2023-04-16T08:59:34.319Z,9.98
2023-04-16T09:02:01.989Z,9.97
2023-04-16T09:04:29.479Z,10.01
2023-04-16T09:06:57.377Z,10.00
2023-04-16T09:09:26.242Z,10.01
2023-04-16T09:11:54.039Z,10.01
2023-04-16T09:14:21.950Z,10.06
2023-04-16T09:16:49.465Z,10.11
2023-04-16T09:19:16.111Z,10.12
2023-04-16T09:21:46.566Z,10.11
2023-04-16T09:24:13.415Z,10.09
2023-04-16T09:26:43.290Z,10.06
2023-04-16T09:29:10.258Z,10.04
2023-04-16T09:31:37.163Z,10.05
2023-04-16T09:34:08.700Z,10.06
2023-04-16T09:36:36.381Z,10.04
2023-04-16T09:39:03.859Z,10.05
2023-04-16T09:41:32.723Z,10.05
2023-04-16T09:44:00.921Z,10.05
2023-04-16T09:46:34.395Z,10.05
2023-04-16T09:49:13.851Z,10.12
2023-04-16T09:51:45.186Z,10.11
2023-04-16T09:54:11.847Z,10.10
2023-04-16T09:56:46.462Z,10.14
2023-04-16T09:59:20.412Z,10.16
2023-04-16T10:01:49.271Z,10.13
2023-04-16T10:04:16.600Z,10.12
2023-04-16T10:06:43.260Z,10.15
2023-04-16T10:09:11.111Z,10.17
2023-04-16T10:11:38.287Z,10.19
2023-04-16T10:14:05.085Z,10.18
2023-04-16T10:16:32.921Z,10.22
2023-04-16T10:18:59.749Z,10.23
2023-04-16T10:21:33.687Z,10.19
2023-04-16T10:24:01.161Z,10.20
2023-04-16T10:26:29.855Z,10.19
2023-04-16T10:28:58.240Z,10.21
2023-04-16T10:31:26.644Z,10.17
2023-04-16T10:33:53.754Z,10.28
2023-04-16T10:36:24.491Z,10.32
2023-04-16T10:38:54.969Z,10.27
2023-04-16T10:41:21.599Z,10.25
2023-04-16T10:43:51.169Z,10.25
2023-04-16T10:46:20.179Z,10.28
2023-04-16T10:48:50.341Z,10.32
2023-04-16T10:51:29.689Z,10.35
2023-04-16T10:54:03.914Z,10.27
2023-04-16T10:56:33.021Z,10.28
2023-04-16T10:58:59.553Z,10.30
2023-04-16T11:01:34.057Z,10.37
2023-04-16T11:04:21.659Z,10.34
2023-04-16T11:07:15.049Z,10.47
2023-04-16T11:09:56.780Z,10.40
2023-04-16T11:12:27.699Z,10.34
2023-04-16T11:14:58.742Z,10.39
2023-04-16T11:17:29.212Z,10.39
2023-04-16T11:19:55.916Z,10.39
2023-04-16T11:22:22.724Z,10.45
2023-04-16T11:24:54.327Z,10.51
2023-04-16T11:27:21.029Z,10.52
2023-04-16T11:30:06.303Z,10.54
2023-04-16T11:32:37.249Z,10.49
2023-04-16T11:35:12.688Z,10.52
2023-04-16T11:37:39.304Z,10.50
2023-04-16T11:40:06.939Z,10.52
2023-04-16T11:42:37.220Z,10.52
2023-04-16T11:45:04.827Z,10.54
2023-04-16T11:47:31.679Z,10.52
2023-04-16T11:50:05.816Z,10.54
2023-04-16T11:52:33.181Z,10.58
2023-04-16T11:54:59.874Z,10.62
2023-04-16T11:57:30.838Z,10.62
2023-04-16T12:00:01.405Z,10.61
2023-04-16T12:02:57.444Z,10.70
2023-04-16T12:05:31.286Z,10.66
2023-04-16T12:08:05.854Z,10.68
2023-04-16T12:10:37.710Z,10.66
2023-04-16T12:13:11.721Z,10.67
2023-04-16T12:15:48.846Z,10.67
2023-04-16T12:18:16.385Z,10.62
2023-04-16T12:20:44.092Z,10.62
2023-04-16T12:23:24.329Z,10.69
2023-04-16T12:25:52.022Z,10.66
2023-04-16T12:28:35.875Z,10.77
2023-04-16T12:31:03.411Z,10.71
2023-04-16T12:33:30.405Z,10.73
2023-04-16T12:35:57.294Z,10.71
2023-04-16T12:38:25.398Z,10.72
2023-04-16T12:40:52.703Z,10.74
2023-04-16T12:43:21.413Z,10.75
2023-04-16T12:45:47.980Z,10.72
2023-04-16T12:48:14.548Z,10.72
2023-04-16T12:50:44.089Z,10.69
2023-04-16T12:53:10.803Z,10.66
2023-04-16T12:55:37.427Z,10.67
2023-04-16T12:58:04.002Z,10.68
2023-04-16T13:00:30.532Z,10.68
2023-04-16T13:02:57.208Z,10.70
2023-04-16T13:05:23.895Z,10.70
2023-04-16T13:07:50.597Z,10.70
2023-04-16T13:10:17.363Z,10.71
2023-04-16T13:12:43.897Z,10.70
2023-04-16T13:15:11.012Z,10.69
2023-04-16T13:17:37.600Z,10.69
2023-04-16T13:20:04.507Z,10.71
2023-04-16T13:22:31.146Z,10.74
2023-04-16T13:24:57.718Z,10.75
2023-04-16T13:27:24.273Z,10.76
2023-04-16T13:29:50.862Z,10.78
2023-04-16T13:32:18.796Z,10.83
2023-04-16T13:34:45.457Z,10.82
2023-04-16T13:37:11.920Z,10.86
2023-04-16T13:39:38.422Z,10.87
2023-04-16T13:42:04.980Z,10.91
2023-04-16T13:44:31.534Z,10.94
2023-04-16T13:46:58.772Z,10.93
2023-04-16T13:49:25.676Z,10.97
2023-04-16T13:51:52.232Z,10.98
2023-04-16T13:54:18.720Z,10.99
2023-04-16T13:56:45.281Z,11.00
2023-04-16T13:59:11.970Z,10.97
2023-04-16T14:01:38.649Z,11.00
2023-04-16T14:04:06.764Z,10.98
2023-04-16T14:06:34.652Z,10.94
2023-04-16T14:09:01.712Z,10.96
2023-04-16T14:11:28.476Z,10.92
2023-04-16T14:13:55.461Z,10.89
2023-04-16T14:16:22.152Z,10.91
2023-04-16T14:18:48.767Z,10.91
2023-04-16T14:21:15.640Z,10.94
2023-04-16T14:23:42.202Z,10.95
2023-04-16T14:26:08.855Z,10.94
2023-04-16T14:28:35.743Z,10.95
2023-04-16T14:31:02.355Z,10.93
2023-04-16T14:33:28.980Z,10.96
2023-04-16T14:35:55.654Z,11.00
2023-04-16T14:38:22.291Z,11.02
2023-04-16T14:40:48.794Z,10.99
2023-04-16T14:43:15.443Z,11.02
2023-04-16T14:45:41.964Z,11.04
2023-04-16T14:48:08.509Z,11.06
2023-04-16T14:50:38.870Z,11.10
2023-04-16T14:53:05.873Z,11.12
2023-04-16T14:55:32.684Z,11.14
2023-04-16T14:57:59.729Z,11.14
2023-04-16T15:00:27.467Z,11.20
2023-04-16T15:02:57.618Z,11.26
2023-04-16T15:05:24.315Z,11.31
2023-04-16T15:07:51.180Z,11.40
2023-04-16T15:10:17.923Z,11.42
2023-04-16T15:12:44.445Z,11.40
2023-04-16T15:15:11.231Z,11.36
2023-04-16T15:17:37.932Z,11.38
2023-04-16T15:20:08.046Z,11.39
2023-04-16T15:22:34.921Z,11.41
2023-04-16T15:25:01.576Z,11.42
2023-04-16T15:27:28.126Z,11.46
2023-04-16T15:29:55.057Z,11.48
2023-04-16T15:32:21.664Z,11.52
2023-04-16T15:34:48.229Z,11.53
2023-04-16T15:37:15.464Z,11.53
2023-04-16T15:39:42.009Z,11.50
2023-04-16T15:42:08.684Z,11.46
2023-04-16T15:44:35.249Z,11.47
2023-04-16T15:47:01.809Z,11.46
2023-04-16T15:49:28.399Z,11.47
2023-04-16T15:51:55.865Z,11.47
2023-04-16T15:54:22.431Z,11.43
2023-04-16T15:56:48.970Z,11.45
2023-04-16T15:59:16.074Z,11.46
2023-04-16T16:01:42.602Z,11.45
2023-04-16T16:04:09.737Z,11.46
2023-04-16T16:06:38.078Z,11.48
2023-04-16T16:09:04.956Z,11.50
2023-04-16T16:11:32.564Z,11.47
2023-04-16T16:14:02.934Z,11.48
2023-04-16T16:16:29.552Z,11.48
2023-04-16T16:18:56.482Z,11.54
2023-04-16T16:21:23.134Z,11.55
2023-04-16T16:23:49.765Z,11.54
2023-04-16T16:26:16.439Z,11.53
2023-04-16T16:28:44.586Z,11.56
2023-04-16T16:31:12.261Z,11.56
2023-04-16T16:33:40.398Z,11.56
2023-04-16T16:36:10.895Z,11.56
2023-04-16T16:38:37.944Z,11.54
2023-04-16T16:41:04.497Z,11.53
2023-04-16T16:43:31.431Z,11.50
2023-04-16T16:45:57.981Z,11.52
2023-04-16T16:48:24.630Z,11.53
2023-04-16T16:50:51.154Z,11.53
2023-04-16T16:53:17.697Z,11.52
2023-04-16T16:55:44.222Z,11.53
2023-04-16T16:58:11.166Z,11.50
2023-04-16T17:00:37.982Z,11.52
2023-04-16T17:03:04.678Z,11.51
2023-04-16T17:05:31.397Z,11.50
2023-04-16T17:07:57.936Z,11.48
2023-04-16T17:10:25.087Z,11.50
2023-04-16T17:12:51.878Z,11.51
2023-04-16T17:15:21.142Z,11.52
2023-04-16T17:17:48.553Z,11.48
2023-04-16T17:20:15.575Z,11.48
2023-04-16T17:22:42.391Z,11.45
2023-04-16T17:25:09.107Z,11.48
2023-04-16T17:27:35.735Z,11.47
2023-04-16T17:30:03.435Z,11.44
2023-04-16T17:32:32.437Z,11.47
2023-04-16T17:35:00.497Z,11.48
2023-04-16T17:37:27.341Z,11.45
2023-04-16T17:39:53.916Z,11.46
2023-04-16T17:42:20.551Z,11.46
2023-04-16T17:44:47.557Z,11.43
2023-04-16T17:47:14.243Z,11.42
2023-04-16T17:49:40.839Z,11.43
2023-04-16T17:52:07.341Z,11.41
2023-04-16T17:54:33.857Z,11.42
2023-04-16T17:57:00.550Z,11.40
2023-04-16T17:59:27.339Z,11.38
2023-04-16T18:01:54.736Z,11.40
2023-04-16T18:04:21.622Z,11.37
2023-04-16T18:06:48.389Z,11.37
2023-04-16T18:09:15.405Z,11.34
2023-04-16T18:11:42.006Z,11.34
2023-04-16T18:14:09.931Z,11.32
2023-04-16T18:16:36.798Z,11.32
2023-04-16T18:19:03.356Z,11.30
2023-04-16T18:21:30.371Z,11.28
2023-04-16T18:23:57.380Z,11.27
2023-04-16T18:26:25.312Z,11.24
2023-04-16T18:28:52.002Z,11.25
2023-04-16T18:31:21.207Z,11.25
2023-04-16T18:33:56.403Z,11.24
2023-04-16T18:36:24.553Z,11.24
2023-04-16T18:39:01.021Z,11.24
2023-04-16T18:41:29.806Z,11.23
2023-04-16T18:43:56.443Z,11.22
2023-04-16T18:46:23.068Z,11.20
2023-04-16T18:48:49.690Z,11.21
2023-04-16T18:51:16.730Z,11.25
2023-04-16T18:53:45.451Z,11.23
2023-04-16T18:56:12.323Z,11.22
2023-04-16T18:58:38.899Z,11.22
2023-04-16T19:01:10.827Z,11.22
2023-04-16T19:03:38.051Z,11.21
2023-04-16T19:06:04.882Z,11.20
2023-04-16T19:08:31.410Z,11.20
2023-04-16T19:10:57.982Z,11.18
2023-04-16T19:13:24.544Z,11.17
2023-04-16T19:15:51.054Z,11.15
2023-04-16T19:18:17.623Z,11.14
2023-04-16T19:20:44.089Z,11.14
2023-04-16T19:23:11.423Z,11.12
2023-04-16T19:25:39.358Z,11.11
2023-04-16T19:28:05.869Z,11.09
2023-04-16T19:30:32.568Z,11.12
2023-04-16T19:32:59.172Z,11.10
2023-04-16T19:35:25.834Z,11.12
2023-04-16T19:37:52.372Z,11.10
2023-04-16T19:40:19.108Z,11.11
2023-04-16T19:42:45.793Z,11.10
2023-04-16T19:45:12.358Z,11.09
2023-04-16T19:47:39.033Z,11.07
2023-04-16T19:50:06.373Z,11.10
2023-04-16T19:52:38.591Z,11.08
2023-04-16T19:55:06.407Z,11.05
2023-04-16T19:57:33.136Z,11.04
2023-04-16T19:59:59.739Z,11.03
2023-04-16T20:02:26.436Z,11.03
2023-04-16T20:04:53.123Z,11.02
2023-04-16T20:07:20.509Z,10.99
2023-04-16T20:09:47.236Z,11.02
2023-04-16T20:12:14.323Z,11.00
2023-04-16T20:14:41.747Z,11.01
2023-04-16T20:17:09.908Z,10.98
2023-04-16T20:19:39.486Z,10.98
2023-04-16T20:22:06.540Z,10.97
2023-04-16T20:24:33.114Z,10.95
2023-04-16T20:26:59.710Z,10.93
2023-04-16T20:29:26.250Z,10.90
2023-04-16T20:31:52.757Z,10.88
2023-04-16T20:34:19.382Z,10.86
2023-04-16T20:36:46.064Z,11.26
2023-04-16T20:39:12.830Z,11.21
2023-04-16T20:41:44.232Z,11.45
2023-04-16T20:44:17.944Z,10.96
2023-04-16T20:46:49.422Z,11.26
2023-04-16T20:49:17.537Z,11.32
2023-04-16T20:51:44.184Z,11.25
2023-04-16T20:54:10.941Z,11.22
2023-04-16T20:56:37.515Z,11.19
2023-04-16T20:59:04.113Z,11.12
2023-04-16T21:01:30.773Z,10.79
2023-04-16T21:03:57.630Z,10.67
2023-04-16T21:06:24.298Z,10.61
2023-04-16T21:08:51.040Z,10.55
2023-04-16T21:11:17.588Z,10.58
2023-04-16T21:13:44.162Z,10.57
2023-04-16T21:16:12.387Z,10.55
2023-04-16T21:18:39.084Z,10.50
2023-04-16T21:21:06.015Z,10.49
2023-04-16T21:23:32.581Z,10.49
2023-04-16T21:25:59.094Z,10.46
2023-04-16T21:28:25.781Z,10.46
2023-04-16T21:30:52.883Z,10.43
2023-04-16T21:33:19.421Z,10.41
2023-04-16T21:35:51.703Z,10.39
2023-04-16T21:38:18.497Z,10.38
2023-04-16T21:40:50.774Z,10.36
2023-04-16T21:43:17.813Z,10.37
2023-04-16T21:45:44.394Z,10.35
2023-04-16T21:48:10.980Z,10.35
2023-04-16T21:50:37.768Z,10.35
2023-04-16T21:53:06.618Z,10.34
2023-04-16T21:55:34.615Z,10.33
2023-04-16T21:58:01.593Z,10.32
2023-04-16T22:00:28.160Z,10.34
2023-04-16T22:02:55.917Z,10.33
2023-04-16T22:05:24.082Z,10.31
2023-04-16T22:07:51.391Z,10.36
2023-04-16T22:10:18.392Z,10.36
2023-04-16T22:12:45.647Z,10.38
2023-04-16T22:15:13.796Z,10.37
2023-04-16T22:17:40.860Z,10.38
2023-04-16T22:20:14.474Z,10.32
2023-04-16T22:22:42.258Z,10.26
2023-04-16T22:25:09.656Z,10.29
2023-04-16T22:27:36.483Z,10.46
2023-04-16T22:30:04.086Z,10.27
2023-04-16T22:32:30.867Z,10.24
2023-04-16T22:34:57.570Z,10.26
2023-04-16T22:37:24.384Z,10.48
2023-04-16T22:39:50.942Z,10.56
2023-04-16T22:42:17.410Z,10.51
2023-04-16T22:44:43.955Z,10.49
2023-04-16T22:47:10.446Z,10.45
2023-04-16T22:49:36.961Z,10.45
2023-04-16T22:52:03.575Z,10.44
2023-04-16T22:54:30.702Z,10.42
2023-04-16T22:56:57.614Z,10.39
2023-04-16T22:59:24.675Z,10.35
2023-04-16T23:01:51.903Z,10.33
2023-04-16T23:04:18.655Z,10.35
2023-04-16T23:06:46.213Z,10.29
2023-04-16T23:09:13.032Z,10.25
2023-04-16T23:11:39.887Z,10.30
2023-04-16T23:14:06.422Z,10.29
2023-04-16T23:16:33.026Z,10.14
2023-04-16T23:18:59.644Z,10.04
2023-04-16T23:21:26.349Z,10.03
2023-04-16T23:23:52.873Z,10.02
2023-04-16T23:26:19.454Z,10.00
2023-04-16T23:28:45.976Z,9.98
2023-04-16T23:31:12.521Z,9.97
2023-04-16T23:33:39.128Z,9.97
2023-04-16T23:36:06.043Z,9.98
2023-04-16T23:38:32.628Z,9.98
2023-04-16T23:40:59.192Z,9.98
2023-04-16T23:43:25.745Z,9.97
2023-04-16T23:45:52.759Z,9.95
2023-04-16T23:48:19.386Z,9.94
2023-04-16T23:50:45.913Z,9.96
2023-04-16T23:53:12.732Z,9.96
2023-04-16T23:55:39.744Z,9.96
2023-04-16T23:58:06.246Z,9.92
